الصفحة الرئيسية
METAR-TAF:

METAR-TAF

مطار :

Newman, أستراليا

دائرة عرض: 23-25-04S, خط طول: 119-48-10E, ارتفاع: 525 متر

مراقبة الطقس الحالي

تاريخ ووقت الإصدار 1ساعة و 9 دقيقة قبل الساعة 05:00UTC
ريح 9 عقدة من الشمال
درجة الحرارة 31°درجة مئوية
الرطوبة 16%
ضغط 1013 hPa
الرؤية 10 كم أو أكثر
غيوم متفرقة على ارتفاع 10500 قدم

METAR: YNWN 060500Z AUTO 01009KT 9999 // SCT105 31/02 Q1013

زمن: 14:09 (06:09 UTC)


TAF: مفقودة

أرصاد الطقس والتوقعات من أكثر من 4000 مطار (تقارير الطقس للمطار METAR والتنبؤ بالطقس بالمطارTAF).

المحطات المتاحة هي النقط الصفراء والحمراء على الخريطة.

حرك المؤشر فوق النقطة لمعرفة اسم المحطة.

ثم انقر لمعرفة أرصاد وتوقعات الطقس.

لتغيير الخارطة: اضغط على الأزرار الخضراء مع رمز الصليب الأسود للتكبير. على الزر الأخضر مع شرطة للتصغير، أو على الأسهم الخضراء للخرائط المجاورة.


METAR-TAF: